Meteo Giornale » Osservazioni meteo Italia » Cervia

ore: 06:55 - Osservazioni Meteo Cervia
Lat. 44° 13' N Lon. 12° 18' E Alt. 6 metri s.l.m.

molto_nuvoloso Europe/Rome

23 °C

Molto Nuvoloso

Temp. 24 Ore

21 °C

31 °C

Ovest

13 Km/h

Dew point 21 °C

Umidità 88 %

Visibilità  10 Km

Il sole sorge alle ore 06:16

Il sole tramonta alle ore 20:13

Data e Ora Cielo e Fenomeni T °C DP °C Um. % Pres. hPa Vis. km Vento km/h
Oggi h: 06:55 molto_nuvoloso Molto Nuvoloso 23 21 88 1010 10 O 13
Oggi h: 05:55 molto_nuvoloso Molto Nuvoloso 22 21 94 1009 10 O/NO 7.4
Oggi h: 04:55 molto_nuvoloso Molto Nuvoloso 23 21 88 1011 10 O 9.3
Oggi h: 03:55 molto_nuvoloso Molto Nuvoloso 24 22 88 1011 10 N 3.7
Oggi h: 02:55 molto_nuvoloso Molto Nuvoloso 24 22 88 1011 10 N 5.5
Oggi h: 01:55 nuvoloso Nuvoloso 24 22 88 1012 10 O/NO 9.3
Oggi h: 00:55 poco_nuvoloso Poco Nuvoloso 23 21 88 1012 10 O 9.3
Ieri h: 23:55 poco_nuvoloso Poco Nuvoloso 24 22 88 1012 10 O 14.8
Ieri h: 22:55 sereno Sereno 25 23 88 1012 10 N 5.5
Ieri h: 21:55 poco_nuvoloso Poco Nuvoloso 26 24 88 1012 10 NO 25.9
Ieri h: 20:55 poco_nuvoloso Poco Nuvoloso 27 25 88 1011 10 E 18.5
Ieri h: 19:55 poco_nuvoloso Poco Nuvoloso 27 22 74 1010 10 E/SE 18.5
Ieri h: 18:55 poco_nuvoloso Poco Nuvoloso 28 23 74 1011 10 E/SE 16.7
Ieri h: 17:55 poco_nuvoloso Poco Nuvoloso 28 23 74 1011 10 E/SE 18.5
Ieri h: 16:55 poco_nuvoloso Poco Nuvoloso 29 23 70 1011 10 E 20.3
Ieri h: 15:55 poco_nuvoloso Poco Nuvoloso 31 22 58 1012 10 E 16.7
Ieri h: 14:55 sereno Sereno 30 24 70 1012 10 E/NE 16.7
Ieri h: 13:55 sereno Sereno 30 25 74 1012 10 E/NE 18.5
Ieri h: 12:55 sereno Sereno 30 24 70 1012 10 E/NE 18.5
Ieri h: 11:55 sereno Sereno 31 20 52 1012 10 E/NE 13
Ieri h: 10:55 sereno Sereno 29 18 51 1012 10 N/NO 7.4
Ieri h: 09:55 sereno Sereno 28 20 61 1012 10 O/NO 9.3
Ieri h: 08:55 sereno Sereno 26 19 65 1012 10 O 11.1
Ieri h: 07:55 sereno Sereno 21 19 88 1012 10 O 7.4